createdAt,value
2022-12-18T00:01:19.552Z,77.26
2022-12-18T00:03:47.043Z,77.37
2022-12-18T00:06:14.836Z,77.43
2022-12-18T00:08:42.656Z,77.44
2022-12-18T00:11:12.398Z,77.69
2022-12-18T00:13:39.503Z,77.77
2022-12-18T00:16:09.995Z,77.84
2022-12-18T00:18:37.032Z,78.07
2022-12-18T00:21:06.966Z,77.44
2022-12-18T00:23:34.949Z,77.61
2022-12-18T00:26:03.489Z,77.65
2022-12-18T00:28:30.125Z,77.55
2022-12-18T00:31:06.546Z,77.26
2022-12-18T00:33:33.719Z,78.01
2022-12-18T00:36:11.850Z,77.98
2022-12-18T00:38:39.265Z,77.82
2022-12-18T00:41:08.642Z,78.24
2022-12-18T00:43:35.815Z,78.17
2022-12-18T00:46:02.990Z,78.15
2022-12-18T00:48:29.653Z,78.48
2022-12-18T00:50:56.235Z,78.42
2022-12-18T00:53:23.043Z,78.83
2022-12-18T00:55:49.605Z,78.37
2022-12-18T00:58:17.869Z,78.14
2022-12-18T01:00:44.843Z,77.97
2022-12-18T01:03:14.692Z,78.06
2022-12-18T01:05:42.654Z,78.26
2022-12-18T01:08:09.339Z,78.05
2022-12-18T01:10:35.845Z,78.07
2022-12-18T01:13:02.397Z,77.79
2022-12-18T01:15:28.915Z,78.17
2022-12-18T01:17:55.485Z,77.58
2022-12-18T01:20:22.087Z,77.87
2022-12-18T01:22:50.474Z,78.18
2022-12-18T01:25:19.021Z,78.01
2022-12-18T01:27:47.124Z,78.39
2022-12-18T01:30:15.702Z,78.03
2022-12-18T01:32:43.537Z,78.13
2022-12-18T01:35:11.746Z,78.07
2022-12-18T01:37:40.021Z,78.34
2022-12-18T01:40:09.038Z,77.83
2022-12-18T01:42:36.987Z,78.10
2022-12-18T01:47:50.330Z,78.11
2022-12-18T01:50:24.093Z,77.75
2022-12-18T01:52:56.633Z,77.40
2022-12-18T01:55:26.189Z,78.00
2022-12-18T01:57:55.869Z,77.92
2022-12-18T02:00:23.951Z,77.28
2022-12-18T02:02:50.811Z,77.46
2022-12-18T02:05:30.241Z,78.17
2022-12-18T02:08:36.481Z,77.90
2022-12-18T02:20:09.813Z,77.31
2022-12-18T02:27:51.980Z,78.04
2022-12-18T02:30:19.740Z,77.95
2022-12-18T02:32:51.223Z,78.46
2022-12-18T02:35:23.141Z,77.77
2022-12-18T02:37:50.766Z,77.86
2022-12-18T02:40:19.669Z,77.83
2022-12-18T02:42:46.260Z,78.38
2022-12-18T02:45:13.377Z,78.19
2022-12-18T02:47:43.369Z,77.71
2022-12-18T02:50:42.932Z,78.15
2022-12-18T03:06:30.010Z,76.51
2022-12-18T03:09:02.104Z,77.05
2022-12-18T03:11:54.411Z,77.97
2022-12-18T03:14:24.748Z,77.81
2022-12-18T03:16:56.185Z,77.43
2022-12-18T03:19:26.674Z,78.16
2022-12-18T03:21:56.964Z,77.80
2022-12-18T03:24:25.459Z,77.77
2022-12-18T03:26:55.930Z,77.67
2022-12-18T03:29:32.237Z,78.00
2022-12-18T03:32:05.900Z,77.71
2022-12-18T03:34:35.653Z,77.35
2022-12-18T03:37:04.153Z,77.96
2022-12-18T03:39:30.807Z,77.38
2022-12-18T03:45:20.164Z,77.39
2022-12-18T03:48:01.603Z,77.68
2022-12-18T03:50:41.868Z,77.80
2022-12-18T03:53:20.637Z,78.20
2022-12-18T03:55:49.004Z,77.73
2022-12-18T03:58:20.412Z,78.14
2022-12-18T04:00:51.630Z,78.35
2022-12-18T04:03:25.318Z,78.00
2022-12-18T04:05:55.162Z,78.62
2022-12-18T04:08:22.768Z,78.60
2022-12-18T04:10:49.432Z,78.64
2022-12-18T04:13:25.357Z,78.53
2022-12-18T04:15:52.287Z,78.43
2022-12-18T04:18:18.877Z,77.79
2022-12-18T04:20:45.424Z,77.95
2022-12-18T04:23:12.220Z,78.36
2022-12-18T04:25:38.793Z,77.59
2022-12-18T04:28:05.482Z,77.98
2022-12-18T04:30:32.068Z,77.67
2022-12-18T04:32:58.731Z,78.79
2022-12-18T04:35:25.333Z,78.54
2022-12-18T04:37:51.879Z,77.96
2022-12-18T04:40:18.493Z,79.02
2022-12-18T04:42:45.126Z,78.39
2022-12-18T04:45:11.752Z,78.68
2022-12-18T04:47:38.354Z,78.17
2022-12-18T04:50:05.475Z,79.05
2022-12-18T04:52:32.036Z,80.16
2022-12-18T04:54:58.690Z,79.82
2022-12-18T04:57:25.265Z,81.32
2022-12-18T04:59:51.797Z,81.59
2022-12-18T05:02:18.495Z,81.17
2022-12-18T05:04:45.076Z,81.63
2022-12-18T05:07:11.633Z,82.04
2022-12-18T05:09:38.247Z,81.99
2022-12-18T05:12:04.946Z,82.23
2022-12-18T05:14:31.533Z,81.66
2022-12-18T05:17:00.991Z,81.99
2022-12-18T05:19:27.954Z,82.33
2022-12-18T05:21:54.536Z,83.46
2022-12-18T05:24:21.110Z,83.12
2022-12-18T05:26:47.699Z,83.28
2022-12-18T05:29:14.297Z,83.11
2022-12-18T05:31:41.135Z,83.18
2022-12-18T05:34:09.598Z,83.63
2022-12-18T05:36:37.260Z,84.00
2022-12-18T05:39:04.225Z,83.81
2022-12-18T05:41:31.173Z,84.01
2022-12-18T05:43:57.811Z,84.23
2022-12-18T05:46:25.332Z,83.54
2022-12-18T05:48:52.232Z,83.89
2022-12-18T05:51:21.943Z,83.58
2022-12-18T05:53:49.360Z,83.98
2022-12-18T05:56:18.653Z,83.43
2022-12-18T05:58:45.559Z,83.71
2022-12-18T06:01:16.908Z,83.01
2022-12-18T06:03:44.289Z,83.41
2022-12-18T06:06:20.298Z,83.63
2022-12-18T06:08:47.633Z,82.64
2022-12-18T06:11:17.668Z,83.22
2022-12-18T06:13:44.229Z,82.18
2022-12-18T06:16:11.608Z,82.92
2022-12-18T06:18:38.243Z,83.59
2022-12-18T06:21:04.965Z,82.75
2022-12-18T06:23:31.546Z,82.88
2022-12-18T06:25:58.201Z,82.62
2022-12-18T06:28:24.831Z,82.88
2022-12-18T06:30:51.663Z,83.50
2022-12-18T06:33:18.623Z,83.60
2022-12-18T06:35:45.223Z,83.31
2022-12-18T06:38:11.821Z,82.73
2022-12-18T06:40:40.168Z,82.66
2022-12-18T06:43:07.296Z,83.13
2022-12-18T06:45:33.923Z,83.56
2022-12-18T06:48:00.529Z,83.47
2022-12-18T06:50:27.207Z,82.42
2022-12-18T06:52:53.778Z,83.13
2022-12-18T06:55:20.470Z,82.82
2022-12-18T06:57:47.022Z,82.97
2022-12-18T07:00:14.571Z,82.55
2022-12-18T07:02:41.630Z,82.39
2022-12-18T07:05:10.968Z,82.96
2022-12-18T07:07:38.119Z,82.04
2022-12-18T07:10:05.282Z,82.45
2022-12-18T07:12:31.893Z,82.03
2022-12-18T07:14:58.438Z,82.18
2022-12-18T07:17:25.017Z,81.94
2022-12-18T07:19:51.557Z,82.56
2022-12-18T07:22:18.094Z,82.42
2022-12-18T07:24:44.682Z,82.62
2022-12-18T07:27:11.220Z,82.80
2022-12-18T07:29:37.792Z,82.73
2022-12-18T07:32:05.018Z,82.82
2022-12-18T07:34:31.639Z,82.37
2022-12-18T07:36:58.225Z,82.13
2022-12-18T07:39:24.763Z,82.75
2022-12-18T07:42:11.253Z,82.73
2022-12-18T07:44:38.307Z,82.73
2022-12-18T07:47:09.153Z,82.63
2022-12-18T07:49:38.604Z,82.38
2022-12-18T07:52:05.347Z,82.40
2022-12-18T07:54:31.961Z,82.03
2022-12-18T07:56:58.504Z,82.38
2022-12-18T07:59:25.048Z,82.46
2022-12-18T08:01:51.717Z,81.75
2022-12-18T08:04:18.537Z,82.21
2022-12-18T08:06:48.003Z,81.99
2022-12-18T08:09:15.321Z,82.22
2022-12-18T08:11:41.937Z,82.45
2022-12-18T08:14:08.572Z,82.68
2022-12-18T08:16:35.164Z,82.68
2022-12-18T08:19:01.749Z,82.57
2022-12-18T08:21:30.487Z,82.38
2022-12-18T08:24:00.778Z,82.42
2022-12-18T08:26:30.479Z,82.50
2022-12-18T08:28:58.243Z,82.39
2022-12-18T08:31:25.872Z,82.54
2022-12-18T08:33:54.089Z,83.10
2022-12-18T08:36:22.802Z,82.61
2022-12-18T08:38:49.868Z,82.64
2022-12-18T08:41:17.910Z,82.74
2022-12-18T08:44:04.477Z,82.59
2022-12-18T08:46:40.586Z,82.65
2022-12-18T08:49:08.488Z,82.83
2022-12-18T08:51:35.527Z,82.32
2022-12-18T08:54:02.810Z,82.63
2022-12-18T08:56:31.263Z,83.24
2022-12-18T08:58:58.313Z,82.66
2022-12-18T09:01:25.433Z,82.73
2022-12-18T09:03:52.359Z,82.54
2022-12-18T09:06:20.881Z,82.27
2022-12-18T09:08:48.167Z,82.32
2022-12-18T09:11:21.568Z,82.40
2022-12-18T09:13:48.142Z,82.06
2022-12-18T09:16:14.835Z,81.96
2022-12-18T09:18:42.000Z,81.91
2022-12-18T09:21:13.401Z,81.59
2022-12-18T09:23:40.010Z,82.45
2022-12-18T09:26:06.951Z,81.81
2022-12-18T09:28:33.820Z,82.63
2022-12-18T09:31:04.254Z,82.38
2022-12-18T09:33:30.839Z,82.10
2022-12-18T09:35:57.957Z,82.09
2022-12-18T09:38:24.604Z,81.97
2022-12-18T09:40:54.748Z,81.72
2022-12-18T09:43:31.081Z,82.04
2022-12-18T09:46:04.262Z,81.76
2022-12-18T09:48:35.994Z,81.78
2022-12-18T09:51:14.519Z,81.87
2022-12-18T09:53:43.738Z,81.98
2022-12-18T09:56:17.581Z,81.96
2022-12-18T09:58:54.450Z,81.99
2022-12-18T10:01:24.198Z,82.39
2022-12-18T10:03:53.030Z,82.05
2022-12-18T10:09:29.584Z,81.92
2022-12-18T10:20:30.795Z,81.81
2022-12-18T10:25:52.840Z,82.22
2022-12-18T10:28:20.722Z,82.85
2022-12-18T10:30:47.850Z,82.66
2022-12-18T10:33:18.637Z,82.44
2022-12-18T10:35:46.712Z,82.49
2022-12-18T10:43:34.245Z,82.55
2022-12-18T10:46:12.822Z,83.33
2022-12-18T10:51:35.270Z,82.72
2022-12-18T10:54:06.237Z,82.63
2022-12-18T10:56:36.918Z,82.30
2022-12-18T10:59:07.387Z,82.74
2022-12-18T11:04:29.217Z,82.90
2022-12-18T11:07:09.231Z,83.07
2022-12-18T11:09:38.285Z,82.91
2022-12-18T11:12:16.112Z,82.74
2022-12-18T11:17:26.265Z,83.17
2022-12-18T11:19:55.589Z,82.71
2022-12-18T11:22:28.627Z,82.84
2022-12-18T11:27:34.684Z,83.11
2022-12-18T11:30:21.930Z,82.38
2022-12-18T11:32:52.048Z,83.16
2022-12-18T11:35:24.585Z,82.88
2022-12-18T11:37:59.164Z,82.93
2022-12-18T11:40:40.851Z,83.04
2022-12-18T11:45:52.919Z,83.42
2022-12-18T11:51:03.758Z,83.45
2022-12-18T11:53:31.389Z,83.25
2022-12-18T11:56:36.090Z,83.07
2022-12-18T12:13:23.056Z,83.44
2022-12-18T12:21:34.449Z,83.91
2022-12-18T12:35:19.071Z,83.43
2022-12-18T12:40:51.140Z,84.08
2022-12-18T12:46:03.769Z,83.33
2022-12-18T12:51:17.271Z,84.37
2022-12-18T12:53:44.295Z,83.47
2022-12-18T12:56:14.960Z,83.81
2022-12-18T13:04:11.497Z,83.50
2022-12-18T13:07:02.353Z,83.59
2022-12-18T13:12:40.599Z,83.49
2022-12-18T13:15:23.719Z,83.94
2022-12-18T13:17:50.716Z,84.11
2022-12-18T13:20:17.597Z,83.79
2022-12-18T13:25:39.009Z,83.62
2022-12-18T13:31:02.454Z,83.59
2022-12-18T13:36:29.362Z,84.48
2022-12-18T13:44:40.714Z,84.52
2022-12-18T13:50:28.560Z,84.28
2022-12-18T13:52:59.098Z,84.57
2022-12-18T13:55:26.556Z,84.95
2022-12-18T13:58:05.085Z,85.39
2022-12-18T14:00:32.928Z,84.78
2022-12-18T14:03:00.947Z,85.47
2022-12-18T14:08:11.212Z,85.46
2022-12-18T14:10:47.648Z,85.42
2022-12-18T14:13:29.196Z,84.67
2022-12-18T14:15:57.410Z,84.91
2022-12-18T14:18:37.605Z,85.68
2022-12-18T14:21:05.434Z,85.79
2022-12-18T14:26:29.928Z,86.13
2022-12-18T14:28:58.258Z,85.62
2022-12-18T14:31:28.228Z,86.84
2022-12-18T14:33:55.531Z,87.03
2022-12-18T14:36:27.302Z,86.16
2022-12-18T14:38:56.650Z,86.78
2022-12-18T14:41:24.426Z,87.49
2022-12-18T14:43:53.076Z,86.70
2022-12-18T14:52:17.585Z,86.86
2022-12-18T14:54:48.220Z,87.95
2022-12-18T14:57:24.750Z,87.58
2022-12-18T14:59:52.135Z,87.13
2022-12-18T15:07:54.730Z,87.98
2022-12-18T15:10:23.861Z,87.77
2022-12-18T15:23:28.610Z,87.27
2022-12-18T15:25:59.980Z,87.96
2022-12-18T15:33:47.008Z,87.47
2022-12-18T15:36:18.993Z,88.56
2022-12-18T15:38:56.177Z,87.64
2022-12-18T15:41:36.089Z,88.43
2022-12-18T15:44:04.294Z,88.44
2022-12-18T15:46:32.087Z,88.40
2022-12-18T15:49:02.561Z,88.08
2022-12-18T15:51:32.818Z,88.60
2022-12-18T15:54:01.783Z,87.98
2022-12-18T15:56:48.274Z,87.89
2022-12-18T15:59:17.485Z,87.82
2022-12-18T16:01:47.152Z,89.02
2022-12-18T16:04:15.799Z,88.24
2022-12-18T16:07:12.807Z,88.37
2022-12-18T16:09:29.432Z,89.04
2022-12-18T16:11:56.068Z,88.31
2022-12-18T16:14:25.596Z,88.22
2022-12-18T16:16:55.690Z,87.93
2022-12-18T16:19:22.720Z,87.95
2022-12-18T16:21:52.167Z,88.21
2022-12-18T16:24:22.867Z,87.98
2022-12-18T16:26:52.416Z,88.78
2022-12-18T16:29:20.199Z,88.13
2022-12-18T16:31:46.952Z,88.63
2022-12-18T16:34:26.752Z,88.63
2022-12-18T16:39:37.477Z,88.64
2022-12-18T16:42:08.452Z,89.02
2022-12-18T16:44:36.100Z,88.95
2022-12-18T16:47:03.363Z,89.21
2022-12-18T16:49:30.544Z,88.79
2022-12-18T16:51:57.370Z,88.05
2022-12-18T16:54:24.073Z,87.93
2022-12-18T16:56:51.618Z,88.67
2022-12-18T16:59:18.294Z,88.75
2022-12-18T17:01:45.146Z,89.10
2022-12-18T17:04:11.945Z,89.46
2022-12-18T17:06:42.096Z,89.44
2022-12-18T17:09:12.647Z,89.27
2022-12-18T17:11:39.197Z,89.12
2022-12-18T17:14:10.427Z,88.79
2022-12-18T17:16:37.170Z,89.87
2022-12-18T17:19:05.439Z,89.87
2022-12-18T17:21:32.241Z,89.36
2022-12-18T17:24:01.428Z,90.36
2022-12-18T17:26:28.416Z,89.75
2022-12-18T17:28:58.828Z,89.83
2022-12-18T17:31:29.641Z,90.15
2022-12-18T17:33:57.506Z,89.79
2022-12-18T17:36:28.815Z,89.99
2022-12-18T17:38:57.877Z,90.56
2022-12-18T17:41:25.540Z,89.99
2022-12-18T17:46:32.310Z,90.26
2022-12-18T17:49:00.441Z,90.87
2022-12-18T17:51:27.772Z,90.91
2022-12-18T17:53:54.742Z,90.09
2022-12-18T17:56:23.211Z,91.50
2022-12-18T17:58:50.738Z,90.44
2022-12-18T18:01:21.042Z,91.48
2022-12-18T18:03:48.973Z,91.26
2022-12-18T18:06:18.823Z,91.17
2022-12-18T18:08:45.587Z,90.72
2022-12-18T18:11:35.927Z,91.19
2022-12-18T18:14:05.289Z,90.65
2022-12-18T18:19:12.949Z,91.10
2022-12-18T18:21:41.790Z,90.78
2022-12-18T18:24:10.298Z,90.99
2022-12-18T18:26:38.444Z,91.06
2022-12-18T18:29:06.808Z,91.33
2022-12-18T18:31:35.516Z,90.94
2022-12-18T18:34:07.516Z,91.14
2022-12-18T18:36:34.801Z,91.17
2022-12-18T18:39:02.376Z,91.05
2022-12-18T18:41:30.566Z,91.11
2022-12-18T18:43:58.870Z,90.87
2022-12-18T18:46:26.113Z,91.03
2022-12-18T18:48:53.245Z,90.46
2022-12-18T18:51:21.547Z,91.00
2022-12-18T18:53:50.282Z,90.64
2022-12-18T18:56:56.197Z,90.93
2022-12-18T18:59:06.076Z,90.87
2022-12-18T19:01:33.165Z,90.75
2022-12-18T19:04:04.338Z,90.94
2022-12-18T19:06:31.336Z,91.00
2022-12-18T19:09:01.810Z,90.52
2022-12-18T19:11:48.620Z,91.07
2022-12-18T19:14:15.869Z,91.10
2022-12-18T19:16:45.447Z,91.24
2022-12-18T19:19:13.078Z,90.62
2022-12-18T19:21:40.070Z,90.90
2022-12-18T19:24:07.016Z,90.56
2022-12-18T19:26:33.665Z,91.46
2022-12-18T19:29:02.201Z,91.11
2022-12-18T19:31:34.873Z,90.92
2022-12-18T19:34:02.798Z,91.12
2022-12-18T19:36:31.118Z,90.46
2022-12-18T19:39:00.394Z,90.08
2022-12-18T19:41:32.812Z,90.16
2022-12-18T19:44:00.414Z,89.92
2022-12-18T19:46:34.792Z,90.11
2022-12-18T19:49:01.497Z,90.00
2022-12-18T19:51:29.800Z,90.52
2022-12-18T19:53:59.281Z,89.84
2022-12-18T19:56:29.445Z,90.15
2022-12-18T19:58:56.459Z,90.36
2022-12-18T20:01:24.995Z,89.70
2022-12-18T20:03:53.710Z,89.30
2022-12-18T20:09:05.097Z,90.50
2022-12-18T20:11:33.292Z,90.61
2022-12-18T20:14:03.760Z,90.74
2022-12-18T20:16:31.019Z,90.60
2022-12-18T20:18:58.308Z,90.69
2022-12-18T20:21:25.362Z,89.43
2022-12-18T20:23:52.235Z,90.56
2022-12-18T20:26:19.416Z,90.71
2022-12-18T20:28:46.238Z,90.12
2022-12-18T20:31:13.682Z,90.73
2022-12-18T20:33:42.035Z,90.59
2022-12-18T20:36:14.210Z,89.33
2022-12-18T20:38:43.061Z,90.65
2022-12-18T20:41:16.411Z,90.71
2022-12-18T20:43:44.309Z,91.06
2022-12-18T20:46:13.675Z,90.91
2022-12-18T20:48:40.881Z,89.96
2022-12-18T20:51:10.609Z,90.91
2022-12-18T20:53:37.408Z,90.05
2022-12-18T20:56:08.803Z,90.25
2022-12-18T20:58:36.135Z,91.10
2022-12-18T21:03:42.730Z,89.87
2022-12-18T21:06:10.532Z,89.94
2022-12-18T21:08:37.867Z,89.41
2022-12-18T21:11:35.861Z,90.42
2022-12-18T21:14:03.905Z,90.17
2022-12-18T21:16:30.630Z,89.26
2022-12-18T21:18:57.568Z,89.66
2022-12-18T21:21:26.878Z,89.19
2022-12-18T21:23:53.973Z,90.16
2022-12-18T21:29:00.939Z,87.51
2022-12-18T21:31:30.387Z,89.43
2022-12-18T21:33:58.368Z,89.46
2022-12-18T21:36:28.848Z,89.40
2022-12-18T21:38:56.481Z,88.50
2022-12-18T21:41:44.003Z,88.80
2022-12-18T21:44:14.039Z,88.61
2022-12-18T21:46:44.661Z,89.54
2022-12-18T21:49:14.520Z,89.77
2022-12-18T21:51:41.501Z,89.09
2022-12-18T21:54:08.319Z,89.71
2022-12-18T21:59:22.932Z,90.38
2022-12-18T22:01:51.058Z,89.68
2022-12-18T22:04:18.703Z,89.98
2022-12-18T22:06:46.560Z,90.58
2022-12-18T22:09:16.043Z,90.42
2022-12-18T22:11:42.972Z,90.70
2022-12-18T22:14:10.009Z,89.99
2022-12-18T22:16:36.840Z,89.77
2022-12-18T22:19:04.888Z,90.12
2022-12-18T22:21:34.471Z,89.87
2022-12-18T22:24:05.088Z,90.20
2022-12-18T22:26:39.507Z,90.72
2022-12-18T22:29:26.734Z,90.00
2022-12-18T22:31:53.263Z,89.55
2022-12-18T22:34:22.985Z,90.09
2022-12-18T22:36:50.238Z,90.24
2022-12-18T22:39:22.478Z,89.95
2022-12-18T22:41:49.500Z,89.56
2022-12-18T22:44:17.544Z,90.24
2022-12-18T22:46:48.753Z,89.35
2022-12-18T22:49:24.681Z,89.21
2022-12-18T22:51:52.637Z,90.13
2022-12-18T22:54:19.490Z,89.70
2022-12-18T22:56:46.081Z,89.47
2022-12-18T22:59:18.905Z,89.38
2022-12-18T23:01:47.027Z,89.63
2022-12-18T23:04:15.102Z,90.31
2022-12-18T23:06:42.808Z,90.28
2022-12-18T23:09:15.968Z,90.46
2022-12-18T23:11:42.732Z,90.68
2022-12-18T23:14:09.298Z,89.93
2022-12-18T23:16:35.917Z,89.50
2022-12-18T23:19:03.610Z,90.58
2022-12-18T23:21:30.329Z,90.54
2022-12-18T23:23:57.335Z,90.29
2022-12-18T23:26:26.066Z,89.85
2022-12-18T23:28:53.553Z,89.90
2022-12-18T23:31:23.819Z,89.73
2022-12-18T23:33:51.170Z,91.17
2022-12-18T23:36:19.368Z,90.07
2022-12-18T23:38:51.564Z,90.53
2022-12-18T23:41:20.010Z,90.13
2022-12-18T23:43:46.812Z,89.73
2022-12-18T23:46:25.490Z,90.18
2022-12-18T23:48:52.238Z,90.14
2022-12-18T23:51:20.688Z,89.99
2022-12-18T23:53:47.229Z,90.52
2022-12-18T23:56:14.682Z,90.84
2022-12-18T23:58:42.889Z,90.35
